Terminal Aerodrome Forecast
Issued by NWS

Home | Current Version | Previous Version | Graphics & Text | Print | Product List | Glossary On
Versions: 1 2 3 4 5 6 7 8 9 10 11 12 13 14 15 16 17 18
999
FTUS43 KBIS 210527
TAFDIK
TAF
KDIK 210527Z 2106/2206 17008KT P6SM SKC
     FM211200 11005KT P6SM BKN090 BKN120
     FM211400 29008KT P6SM SCT120 BKN140
     FM211700 31012G20KT P6SM SCT120 BKN200=

USA.gov is the U.S. government's official web portal to all federal, state and local government web resources and services.